Time;durP1;ratioP1;P1;durP2;ratioP2;P2;SDS_P1;SDS_P2;PMS_P1;PMS_P2;Temp;Humidity;BMP_temperature;BMP_pressure;BME280_temperature;BME280_humidity;BME280_pressure;Samples;Min_cycle;Max_cycle;Signal;HPM_P1;HPM_P2
2023/11/05 00:09:53;;;;;;;37.50;18.30;;;;;;;4.60;85.17;95950.08;435283;1254;99022;-40
2023/11/05 00:19:55;;;;;;;36.30;20.00;;;;;;;4.64;85.21;95942.29;435242;1250;112118;-40
2023/11/05 00:29:59;;;;;;;40.50;19.40;;;;;;;4.69;85.32;95951.71;435352;1251;108419;-41
2023/11/05 00:40:02;;;;;;;33.00;16.10;;;;;;;4.76;85.51;95944.52;435056;1250;526283;-40
2023/11/05 00:50:09;;;;;;;28.60;15.70;;;;;;;4.92;85.41;95934.08;435347;1249;107435;-41
2023/11/05 01:00:13;;;;;;;29.40;14.10;;;;;;;4.99;85.29;95902.79;435386;1251;99236;-40
2023/11/05 01:20:31;;;;;;;27.30;14.90;;;;;;;4.73;84.87;95912.52;435346;1250;108230;-41
2023/11/05 01:30:35;;;;;;;25.50;14.40;;;;;;;4.63;84.76;95908.67;435308;1256;99250;-40
2023/11/05 01:40:38;;;;;;;29.30;14.20;;;;;;;4.62;84.88;95902.14;435273;1251;108589;-40
2023/11/05 01:50:42;;;;;;;22.20;13.10;;;;;;;4.80;85.40;95886.15;435214;1254;99205;-40
2023/11/05 02:00:46;;;;;;;28.00;14.40;;;;;;;4.97;85.56;95891.52;435415;1254;111120;-41
2023/11/05 02:10:50;;;;;;;22.70;12.00;;;;;;;5.04;85.35;95901.59;435294;1250;107708;-41
2023/11/05 02:21:05;;;;;;;23.10;13.00;;;;;;;5.13;85.31;95885.08;435857;1247;99316;-39
2023/11/05 02:31:09;;;;;;;24.80;13.10;;;;;;;5.14;85.26;95882.09;435225;1254;108892;-41
2023/11/05 02:41:13;;;;;;;28.30;15.20;;;;;;;5.15;85.32;95883.40;435421;1250;99258;-40
2023/11/05 02:51:17;;;;;;;19.50;11.50;;;;;;;5.15;85.47;95897.18;435199;1253;111841;-40
2023/11/05 03:01:23;;;;;;;19.30;11.30;;;;;;;5.27;85.36;95904.21;435232;1252;109401;-40
2023/11/05 03:11:26;;;;;;;21.50;10.80;;;;;;;5.45;85.44;95894.45;435410;1250;98843;-41
2023/11/05 03:21:31;;;;;;;17.10;10.90;;;;;;;5.66;85.65;95854.59;435272;1261;108452;-41
2023/11/05 03:31:34;;;;;;;24.40;11.00;;;;;;;5.74;85.75;95849.65;435332;1253;99208;-43
2023/11/05 03:41:38;;;;;;;16.10;10.40;;;;;;;5.69;85.90;95834.72;435416;1249;110683;-39
2023/11/05 04:01:48;;;;;;;15.30;9.80;;;;;;;5.79;86.04;95824.72;435378;1253;98817;-41
2023/11/05 04:11:51;;;;;;;16.00;10.30;;;;;;;5.85;86.28;95820.65;435184;1253;108417;-41
2023/11/05 04:21:54;;;;;;;18.00;11.40;;;;;;;5.90;86.42;95833.51;435419;1253;98066;-41
2023/11/05 04:31:59;;;;;;;23.50;11.80;;;;;;;5.92;86.67;95845.78;435506;1252;112095;-42
2023/11/05 04:52:07;;;;;;;17.30;8.50;;;;;;;6.35;87.02;95832.80;435214;1253;99259;-41
2023/11/05 05:12:14;;;;;;;19.60;10.10;;;;;;;6.61;87.22;95800.71;435397;1250;99246;-40
2023/11/05 05:22:18;;;;;;;17.70;9.70;;;;;;;6.59;87.13;95802.20;435382;1253;111249;-41
2023/11/05 05:32:22;;;;;;;17.50;9.60;;;;;;;6.63;87.15;95787.59;435361;1253;107710;-42
2023/11/05 05:42:25;;;;;;;15.20;8.40;;;;;;;6.69;86.87;95784.61;435402;1254;99234;-40
2023/11/05 06:02:32;;;;;;;22.50;10.00;;;;;;;6.87;87.16;95827.87;435383;1254;99293;-39
2023/11/05 06:12:36;;;;;;;18.80;9.60;;;;;;;6.90;87.31;95828.36;435446;1252;112411;-39
2023/11/05 06:22:39;;;;;;;13.00;7.50;;;;;;;7.04;87.44;95823.89;435482;1250;107667;-40
2023/11/05 06:32:43;;;;;;;14.80;7.60;;;;;;;7.18;87.48;95824.46;435363;1250;99262;-41
2023/11/05 06:42:47;;;;;;;13.20;7.60;;;;;;;7.24;87.56;95810.94;435485;1250;107282;-40
2023/11/05 06:52:50;;;;;;;19.30;11.10;;;;;;;7.26;87.80;95790.00;435357;1256;99253;-40
2023/11/05 07:02:53;;;;;;;15.70;9.30;;;;;;;7.30;87.96;95779.39;435345;1254;111346;-40
2023/11/05 07:12:57;;;;;;;15.10;9.40;;;;;;;7.34;88.12;95752.15;435411;1252;107743;-40
2023/11/05 07:23:03;;;;;;;11.40;6.80;;;;;;;7.40;88.42;95748.92;435354;1256;99288;-40
2023/11/05 07:43:11;;;;;;;10.30;5.60;;;;;;;7.72;88.55;95742.77;435331;1251;98002;-41
2023/11/05 07:53:13;;;;;;;8.80;5.20;;;;;;;7.88;88.55;95754.27;435430;1253;111702;-40
2023/11/05 08:03:22;;;;;;;9.60;5.60;;;;;;;7.96;88.43;95769.35;435395;1253;109337;-40
2023/11/05 08:13:26;;;;;;;10.00;5.90;;;;;;;7.93;88.62;95765.02;435487;1251;99202;-41
2023/11/05 08:23:29;;;;;;;10.70;5.20;;;;;;;7.95;88.66;95767.01;435391;1254;107689;-40
2023/11/05 08:33:32;;;;;;;9.40;6.60;;;;;;;7.98;88.88;95764.34;435259;1253;98680;-40
2023/11/05 08:43:36;;;;;;;11.00;6.70;;;;;;;8.01;89.15;95761.56;435259;1253;111796;-40
2023/11/05 08:53:39;;;;;;;15.10;7.10;;;;;;;8.04;89.25;95748.00;435373;1256;108433;-40
2023/11/05 09:03:42;;;;;;;12.40;7.50;;;;;;;8.10;89.34;95735.20;435322;1256;99336;-40
2023/11/05 09:13:46;;;;;;;19.20;9.40;;;;;;;8.13;89.66;95718.41;435194;1253;107517;-40
2023/11/05 09:33:54;;;;;;;12.90;9.40;;;;;;;8.19;90.15;95726.59;435372;1250;110712;-40
2023/11/05 09:43:56;;;;;;;17.70;12.50;;;;;;;8.19;90.92;95726.99;435206;1253;107257;-40
2023/11/05 09:54:00;;;;;;;19.90;12.10;;;;;;;8.22;91.32;95702.05;435372;1254;99330;-41
2023/11/05 10:14:08;;;;;;;19.00;11.80;;;;;;;8.38;92.67;95684.55;435367;1253;99327;-40
2023/11/05 10:34:14;;;;;;;14.40;8.00;;;;;;;8.62;92.77;95672.25;435424;1250;106844;-40
2023/11/05 11:14:29;;;;;;;13.20;9.00;;;;;;;8.97;93.51;95597.81;435372;1251;112275;-39
2023/11/05 11:24:33;;;;;;;14.40;9.10;;;;;;;9.01;93.47;95591.98;435570;1253;108708;-40
2023/11/05 11:44:39;;;;;;;16.30;11.40;;;;;;;8.99;93.72;95581.17;435372;1252;107892;-40
2023/11/05 12:04:47;;;;;;;16.30;10.30;;;;;;;9.03;94.05;95595.27;435261;1254;111095;-39
2023/11/05 12:25:00;;;;;;;17.60;8.60;;;;;;;9.04;94.16;95605.96;435339;1253;99208;-40
2023/11/05 12:35:04;;;;;;;22.00;9.90;;;;;;;9.04;94.44;95599.33;435409;1252;107592;-40
2023/11/05 12:45:08;;;;;;;17.80;10.90;;;;;;;9.08;94.59;95593.43;434991;1253;433020;-40
2023/11/05 12:55:11;;;;;;;24.50;12.50;;;;;;;9.12;94.71;95588.13;435355;1253;111213;-40
2023/11/05 13:05:14;;;;;;;22.10;12.30;;;;;;;9.17;94.78;95595.86;435137;1253;108238;-40
2023/11/05 13:35:23;;;;;;;15.30;8.70;;;;;;;9.22;94.95;95603.21;435416;1253;98816;-40
2023/11/05 14:05:32;;;;;;;15.30;8.80;;;;;;;9.31;95.13;95590.18;435910;1253;99211;-39
2023/11/05 14:15:36;;;;;;;12.80;8.20;;;;;;;9.36;95.15;95592.33;435333;1256;108024;-39
2023/11/05 14:25:39;;;;;;;19.60;11.30;;;;;;;9.45;95.18;95615.52;435668;1256;99221;-39
2023/11/05 14:45:47;;;;;;;18.00;10.20;;;;;;;9.36;95.19;95650.82;435347;1251;108091;-39
2023/11/05 14:55:49;;;;;;;20.20;12.00;;;;;;;9.27;95.35;95655.96;435422;1263;99227;-39
2023/11/05 15:05:53;;;;;;;27.50;16.00;;;;;;;9.16;95.34;95659.80;435203;1255;108648;-40
2023/11/05 15:15:57;;;;;;;18.60;12.60;;;;;;;9.04;94.98;95664.10;435099;1253;99231;-38
2023/11/05 15:26:00;;;;;;;21.50;12.70;;;;;;;8.86;94.95;95676.31;435291;1254;111462;-40
2023/11/05 15:36:05;;;;;;;28.60;16.20;;;;;;;8.73;95.03;95684.09;435440;1253;108952;-40
2023/11/05 15:46:11;;;;;;;34.70;23.50;;;;;;;8.58;94.93;95696.91;435537;1253;97966;-40
2023/11/05 15:56:14;;;;;;;29.60;16.30;;;;;;;8.44;94.95;95712.02;435371;1263;109446;-40
2023/11/05 16:16:22;;;;;;;30.50;17.80;;;;;;;8.37;95.12;95716.79;435237;1254;111965;-41
2023/11/05 16:26:31;;;;;;;32.10;17.70;;;;;;;8.43;95.31;95728.36;435521;1249;108643;-39
2023/11/05 16:36:36;;;;;;;26.40;16.40;;;;;;;8.54;95.34;95746.55;435307;1254;99219;-39
2023/11/05 16:46:39;;;;;;;25.00;13.20;;;;;;;8.66;95.58;95777.11;435438;1251;107819;-41
2023/11/05 17:16:49;;;;;;;10.20;5.80;;;;;;;9.05;95.95;95801.08;435132;1255;108587;-40
2023/11/05 17:26:53;;;;;;;9.60;5.40;;;;;;;9.05;96.06;95813.45;435481;1253;97983;-40
2023/11/05 17:36:56;;;;;;;11.00;6.50;;;;;;;9.08;96.19;95828.91;435332;1254;108208;-39
2023/11/05 17:47:00;;;;;;;10.70;5.50;;;;;;;9.10;96.07;95834.27;435415;1254;99233;-39
2023/11/05 17:57:03;;;;;;;12.40;6.60;;;;;;;9.12;96.08;95846.73;435386;1251;112149;-40
2023/11/05 18:17:09;;;;;;;9.30;5.00;;;;;;;9.23;96.13;95872.77;435311;1254;99252;-43
2023/11/05 18:27:13;;;;;;;8.70;4.50;;;;;;;9.32;96.19;95884.90;435284;1253;108442;-41
2023/11/05 18:37:17;;;;;;;9.80;4.60;;;;;;;9.37;95.91;95899.42;435259;1252;99187;-40
2023/11/05 19:07:26;;;;;;;6.00;4.90;;;;;;;9.39;95.96;95929.67;435242;1253;99858;-40
2023/11/05 19:17:29;;;;;;;12.00;5.10;;;;;;;9.36;95.73;95936.11;435370;1251;108680;-41
2023/11/05 19:27:33;;;;;;;11.50;5.40;;;;;;;9.34;95.58;95941.92;435375;1251;99215;-40
2023/11/05 19:47:39;;;;;;;11.80;4.50;;;;;;;9.36;95.57;95985.52;435298;1251;107609;-40
2023/11/05 19:57:42;;;;;;;5.50;3.30;;;;;;;9.40;95.41;96004.92;435451;1254;98819;-39
2023/11/05 20:07:44;;;;;;;9.90;3.40;;;;;;;9.44;95.46;96026.05;435321;1250;109416;-40
2023/11/05 20:17:48;;;;;;;6.90;4.40;;;;;;;9.47;95.42;96044.18;435491;1254;99356;-40
2023/11/05 20:37:56;;;;;;;5.20;3.30;;;;;;;9.40;95.42;96070.42;435216;1250;107425;-42
2023/11/05 20:47:59;;;;;;;9.60;4.80;;;;;;;9.38;95.44;96090.92;435396;1256;101660;-39
2023/11/05 21:08:06;;;;;;;6.80;4.00;;;;;;;9.40;95.36;96112.25;435380;1254;99234;-38
2023/11/05 21:18:10;;;;;;;4.60;3.10;;;;;;;9.39;95.17;96128.99;435324;1249;112058;-40
2023/11/05 21:28:14;;;;;;;6.20;3.40;;;;;;;9.39;95.33;96145.71;435417;1253;108422;-39
2023/11/05 21:38:17;;;;;;;5.40;2.80;;;;;;;9.44;94.94;96158.48;435296;1254;99227;-39
2023/11/05 21:58:24;;;;;;;8.60;3.00;;;;;;;9.45;94.48;96198.61;435266;1253;99231;-38
2023/11/05 22:08:28;;;;;;;3.10;2.40;;;;;;;9.45;94.39;96218.05;435370;1253;111968;-40
2023/11/05 22:28:35;;;;;;;7.10;3.20;;;;;;;9.41;94.27;96244.55;435241;1251;99250;-39
2023/11/05 22:48:42;;;;;;;4.30;3.20;;;;;;;9.23;94.62;96256.76;435345;1252;99237;-41
2023/11/05 22:58:46;;;;;;;4.00;2.30;;;;;;;9.22;94.62;96279.85;435320;1254;111187;-39
2023/11/05 23:08:50;;;;;;;7.70;1.80;;;;;;;9.25;94.82;96291.92;435258;1251;109311;-40
2023/11/05 23:18:53;;;;;;;4.80;2.60;;;;;;;9.29;94.93;96305.06;435346;1250;98818;-39
2023/11/05 23:28:57;;;;;;;4.00;2.30;;;;;;;9.32;94.91;96320.13;435366;1250;108554;-40
2023/11/05 23:39:00;;;;;;;3.20;2.10;;;;;;;9.34;94.90;96340.46;435138;1250;98930;-39
2023/11/05 23:49:04;;;;;;;2.80;1.70;;;;;;;9.35;94.94;96346.88;435282;1250;112109;-40
2023/11/05 23:59:08;;;;;;;6.60;1.60;;;;;;;9.32;94.55;96363.48;435310;1264;108353;-40
